createdAt,value
2022-12-03T00:01:45.780Z,4.40
2022-12-03T00:04:12.394Z,4.40
2022-12-03T00:06:38.993Z,4.40
2022-12-03T00:09:06.100Z,4.40
2022-12-03T00:11:32.836Z,4.40
2022-12-03T00:13:59.480Z,4.40
2022-12-03T00:16:26.181Z,4.40
2022-12-03T00:18:52.910Z,4.40
2022-12-03T00:21:19.555Z,4.40
2022-12-03T00:23:46.080Z,4.40
2022-12-03T00:26:13.042Z,4.50
2022-12-03T00:28:39.713Z,4.50
2022-12-03T00:31:06.470Z,4.50
2022-12-03T00:33:33.223Z,4.30
2022-12-03T00:35:59.907Z,4.30
2022-12-03T00:38:26.426Z,4.30
2022-12-03T00:40:52.982Z,4.30
2022-12-03T00:43:19.680Z,4.30
2022-12-03T00:45:46.279Z,4.40
2022-12-03T00:48:12.832Z,4.30
2022-12-03T00:50:41.658Z,4.20
2022-12-03T00:53:08.229Z,4.20
2022-12-03T00:55:34.806Z,4.20
2022-12-03T00:58:01.663Z,4.20
2022-12-03T01:00:28.257Z,4.20
2022-12-03T01:02:54.803Z,4.20
2022-12-03T01:05:21.616Z,4.20
2022-12-03T01:07:48.332Z,4.20
2022-12-03T01:10:15.198Z,4.10
2022-12-03T01:12:41.861Z,4.10
2022-12-03T01:15:09.128Z,4.10
2022-12-03T01:17:35.786Z,4.10
2022-12-03T01:20:05.082Z,4.10
2022-12-03T01:22:31.622Z,4.10
2022-12-03T01:24:58.262Z,4.10
2022-12-03T01:27:24.910Z,4.10
2022-12-03T01:29:51.420Z,4.20
2022-12-03T01:32:19.135Z,4.10
2022-12-03T01:34:53.789Z,4.10
2022-12-03T01:37:23.154Z,4.10
2022-12-03T01:39:49.878Z,4.10
2022-12-03T01:42:19.693Z,4.10
2022-12-03T01:44:46.554Z,4.00
2022-12-03T01:47:18.754Z,4.00
2022-12-03T01:50:13.100Z,4.00
2022-12-03T01:52:40.694Z,4.00
2022-12-03T01:55:13.584Z,4.00
2022-12-03T01:57:49.491Z,3.90
2022-12-03T02:00:18.555Z,3.90
2022-12-03T02:02:50.458Z,3.90
2022-12-03T02:05:20.219Z,3.90
2022-12-03T02:07:46.944Z,3.80
2022-12-03T02:10:15.444Z,3.80
2022-12-03T02:12:54.750Z,3.80
2022-12-03T02:15:21.738Z,3.80
2022-12-03T02:17:48.492Z,3.70
2022-12-03T02:20:16.353Z,3.70
2022-12-03T02:22:59.720Z,3.80
2022-12-03T02:25:28.208Z,3.80
2022-12-03T02:27:55.993Z,3.70
2022-12-03T02:30:24.493Z,3.70
2022-12-03T02:32:52.189Z,3.70
2022-12-03T02:35:31.457Z,3.70
2022-12-03T02:38:14.459Z,3.70
2022-12-03T02:40:43.234Z,3.70
2022-12-03T02:43:11.245Z,3.70
2022-12-03T02:45:44.182Z,3.70
2022-12-03T02:48:17.662Z,3.80
2022-12-03T02:50:57.334Z,3.80
2022-12-03T02:53:28.542Z,3.80
2022-12-03T02:55:58.960Z,3.80
2022-12-03T02:58:26.591Z,3.80
2022-12-03T03:00:54.714Z,3.70
2022-12-03T03:03:24.631Z,3.60
2022-12-03T03:05:51.558Z,3.70
2022-12-03T03:08:19.262Z,3.70
2022-12-03T03:10:47.459Z,3.70
2022-12-03T03:13:16.311Z,3.60
2022-12-03T03:15:43.467Z,3.50
2022-12-03T03:18:11.857Z,3.50
2022-12-03T03:20:39.006Z,3.50
2022-12-03T03:23:20.268Z,3.50
2022-12-03T03:25:52.178Z,3.50
2022-12-03T03:28:19.052Z,3.50
2022-12-03T03:30:47.067Z,3.50
2022-12-03T03:33:15.426Z,3.40
2022-12-03T03:35:43.151Z,3.50
2022-12-03T03:38:10.212Z,3.40
2022-12-03T03:40:38.050Z,3.50
2022-12-03T03:43:05.899Z,3.40
2022-12-03T03:45:33.190Z,3.40
2022-12-03T03:48:00.781Z,3.40
2022-12-03T03:50:30.192Z,3.50
2022-12-03T03:52:57.589Z,3.40
2022-12-03T03:55:24.631Z,3.40
2022-12-03T03:57:51.417Z,3.40
2022-12-03T04:00:18.785Z,3.40
2022-12-03T04:02:45.746Z,3.40
2022-12-03T04:05:18.642Z,3.40
2022-12-03T04:07:45.621Z,3.40
2022-12-03T04:10:32.853Z,3.40
2022-12-03T04:13:00.054Z,3.40
2022-12-03T04:15:26.939Z,3.40
2022-12-03T04:18:12.521Z,3.40
2022-12-03T04:20:39.145Z,3.50
2022-12-03T04:23:05.983Z,3.40
2022-12-03T04:25:51.221Z,3.40
2022-12-03T04:28:36.482Z,3.40
2022-12-03T04:31:26.147Z,3.40
2022-12-03T04:34:11.881Z,3.40
2022-12-03T04:36:38.955Z,3.40
2022-12-03T04:39:05.713Z,3.30
2022-12-03T04:41:32.291Z,3.30
2022-12-03T04:44:17.649Z,3.30
2022-12-03T04:47:00.576Z,3.30
2022-12-03T04:49:27.199Z,3.30
2022-12-03T04:51:53.778Z,3.20
2022-12-03T04:54:20.350Z,3.20
2022-12-03T04:56:46.979Z,3.20
2022-12-03T04:59:16.518Z,3.30
2022-12-03T05:01:44.097Z,3.30
2022-12-03T05:04:11.592Z,3.30
2022-12-03T05:06:38.225Z,3.20
2022-12-03T05:09:05.065Z,3.20
2022-12-03T05:11:31.644Z,3.30
2022-12-03T05:13:58.314Z,3.20
2022-12-03T05:16:24.883Z,3.20
2022-12-03T05:18:51.591Z,3.20
2022-12-03T05:21:18.273Z,3.30
2022-12-03T05:23:44.971Z,3.20
2022-12-03T05:26:11.770Z,3.20
2022-12-03T05:28:38.357Z,3.30
2022-12-03T05:31:06.020Z,3.20
2022-12-03T05:33:32.792Z,3.20
2022-12-03T05:35:59.588Z,3.20
2022-12-03T05:38:26.398Z,3.20
2022-12-03T05:40:53.255Z,3.20
2022-12-03T05:43:19.833Z,3.20
2022-12-03T05:45:46.481Z,3.30
2022-12-03T05:48:15.634Z,3.30
2022-12-03T05:50:44.301Z,3.30
2022-12-03T05:53:12.132Z,3.30
2022-12-03T05:55:38.911Z,3.30
2022-12-03T05:58:05.626Z,3.30
2022-12-03T06:00:42.359Z,3.30
2022-12-03T06:03:09.962Z,3.30
2022-12-03T06:05:36.699Z,3.30
2022-12-03T06:08:03.549Z,3.30
2022-12-03T06:10:30.333Z,3.20
2022-12-03T06:12:56.976Z,3.20
2022-12-03T06:15:23.864Z,3.20
2022-12-03T06:17:50.553Z,3.30
2022-12-03T06:20:19.774Z,3.30
2022-12-03T06:22:47.335Z,3.20
2022-12-03T06:25:14.299Z,3.20
2022-12-03T06:27:40.876Z,3.30
2022-12-03T06:30:11.277Z,3.20
2022-12-03T06:32:37.907Z,3.30
2022-12-03T06:35:04.697Z,3.30
2022-12-03T06:37:31.255Z,3.30
2022-12-03T06:39:57.768Z,3.20
2022-12-03T06:42:24.550Z,3.20
2022-12-03T06:44:51.518Z,3.20
2022-12-03T06:47:18.274Z,3.20
2022-12-03T06:49:44.788Z,3.30
2022-12-03T06:52:11.399Z,3.20
2022-12-03T06:54:37.982Z,3.20
2022-12-03T06:57:04.567Z,3.30
2022-12-03T06:59:34.057Z,3.30
2022-12-03T07:02:01.013Z,3.30
2022-12-03T07:04:27.664Z,3.30
2022-12-03T07:06:54.231Z,3.30
2022-12-03T07:09:20.813Z,3.30
2022-12-03T07:11:47.432Z,3.30
2022-12-03T07:14:14.026Z,3.30
2022-12-03T07:16:43.084Z,3.40
2022-12-03T07:19:10.172Z,3.30
2022-12-03T07:21:36.906Z,3.30
2022-12-03T07:24:03.708Z,3.30
2022-12-03T07:26:30.489Z,3.30
2022-12-03T07:28:57.473Z,3.30
2022-12-03T07:31:24.141Z,3.40
2022-12-03T07:33:50.905Z,3.30
2022-12-03T07:36:17.492Z,3.40
2022-12-03T07:38:44.197Z,3.30
2022-12-03T07:41:10.969Z,3.30
2022-12-03T07:43:37.536Z,3.30
2022-12-03T07:46:04.120Z,3.30
2022-12-03T07:48:30.756Z,3.50
2022-12-03T07:50:57.479Z,3.40
2022-12-03T07:53:24.075Z,3.40
2022-12-03T07:55:50.612Z,3.40
2022-12-03T07:58:17.131Z,3.40
2022-12-03T08:00:43.720Z,3.30
2022-12-03T08:03:10.346Z,3.50
2022-12-03T08:05:36.899Z,3.30
2022-12-03T08:08:03.693Z,3.30
2022-12-03T08:10:30.331Z,3.30
2022-12-03T08:12:59.082Z,3.40
2022-12-03T08:15:33.624Z,3.30
2022-12-03T08:18:18.403Z,3.30
2022-12-03T08:20:46.485Z,3.30
2022-12-03T08:23:19.048Z,3.30
2022-12-03T08:25:46.410Z,3.30
2022-12-03T08:28:14.665Z,3.30
2022-12-03T08:30:43.259Z,3.30
2022-12-03T08:33:26.663Z,3.30
2022-12-03T08:35:53.873Z,3.30
2022-12-03T08:38:23.281Z,3.30
2022-12-03T08:40:52.113Z,3.30
2022-12-03T08:43:21.540Z,3.20
2022-12-03T08:45:49.815Z,3.20
2022-12-03T08:48:24.275Z,3.30
2022-12-03T08:50:51.238Z,3.30
2022-12-03T08:53:33.028Z,3.40
2022-12-03T08:56:04.969Z,3.40
2022-12-03T08:58:37.994Z,3.40
2022-12-03T09:01:10.403Z,3.40
2022-12-03T09:03:51.191Z,3.40
2022-12-03T09:06:17.886Z,3.40
2022-12-03T09:08:44.528Z,3.40
2022-12-03T09:11:11.166Z,3.40
2022-12-03T09:13:38.022Z,3.50
2022-12-03T09:16:04.923Z,3.50
2022-12-03T09:18:32.387Z,3.50
2022-12-03T09:20:58.972Z,3.40
2022-12-03T09:23:25.484Z,3.50
2022-12-03T09:25:52.151Z,3.50
2022-12-03T09:28:18.793Z,3.50
2022-12-03T09:30:45.335Z,3.60
2022-12-03T09:33:11.939Z,3.50
2022-12-03T09:35:38.502Z,3.40
2022-12-03T09:38:05.086Z,3.50
2022-12-03T09:40:31.689Z,3.50
2022-12-03T09:42:58.586Z,3.50
2022-12-03T09:45:25.342Z,3.60
2022-12-03T09:47:52.240Z,3.60
2022-12-03T09:50:25.308Z,3.60
2022-12-03T09:52:54.825Z,3.70
2022-12-03T09:55:24.749Z,3.70
2022-12-03T09:57:55.597Z,3.70
2022-12-03T10:00:25.679Z,3.70
2022-12-03T10:02:54.671Z,3.80
2022-12-03T10:05:22.378Z,3.80
2022-12-03T10:07:51.106Z,3.80
2022-12-03T10:10:25.010Z,3.80
2022-12-03T10:12:52.435Z,3.90
2022-12-03T10:15:22.607Z,3.90
2022-12-03T10:17:52.565Z,3.90
2022-12-03T10:20:21.703Z,3.90
2022-12-03T10:22:49.124Z,3.90
2022-12-03T10:25:22.319Z,3.90
2022-12-03T10:28:03.674Z,3.90
2022-12-03T10:30:31.938Z,3.90
2022-12-03T10:33:02.387Z,4.00
2022-12-03T10:35:41.052Z,4.00
2022-12-03T10:38:24.510Z,4.00
2022-12-03T10:40:51.359Z,3.90
2022-12-03T10:43:17.893Z,4.00
2022-12-03T10:45:46.391Z,4.00
2022-12-03T10:48:27.445Z,3.90
2022-12-03T10:50:55.189Z,3.90
2022-12-03T10:53:26.298Z,4.00
2022-12-03T10:55:59.311Z,4.00
2022-12-03T10:58:37.430Z,4.00
2022-12-03T11:01:13.698Z,4.00
2022-12-03T11:03:40.723Z,3.90
2022-12-03T11:06:20.824Z,4.00
2022-12-03T11:08:56.317Z,3.90
2022-12-03T11:11:28.530Z,3.90
2022-12-03T11:13:57.982Z,3.80
2022-12-03T11:16:39.806Z,3.80
2022-12-03T11:19:12.455Z,3.80
2022-12-03T11:22:05.166Z,3.80
2022-12-03T11:24:41.180Z,3.80
2022-12-03T11:27:10.871Z,3.90
2022-12-03T11:29:48.098Z,3.80
2022-12-03T11:32:42.826Z,3.80
2022-12-03T11:35:28.425Z,3.80
2022-12-03T11:37:55.145Z,3.80
2022-12-03T11:40:21.687Z,3.70
2022-12-03T11:42:49.147Z,3.70
2022-12-03T11:45:27.127Z,3.80
2022-12-03T11:47:59.948Z,3.80
2022-12-03T11:50:40.448Z,3.80
2022-12-03T11:53:13.473Z,3.70
2022-12-03T11:55:44.333Z,3.70
2022-12-03T11:58:21.887Z,3.70
2022-12-03T12:01:08.019Z,3.80
2022-12-03T12:03:41.535Z,3.80
2022-12-03T12:06:10.863Z,3.80
2022-12-03T12:08:54.892Z,3.80
2022-12-03T12:11:35.304Z,3.80
2022-12-03T12:14:02.823Z,3.90
2022-12-03T12:16:43.286Z,3.80
2022-12-03T12:19:30.471Z,3.70
2022-12-03T12:22:13.952Z,3.70
2022-12-03T12:24:41.326Z,3.70
2022-12-03T12:27:13.373Z,3.70
2022-12-03T12:29:42.104Z,3.70
2022-12-03T12:32:08.721Z,3.70
2022-12-03T12:34:38.054Z,3.60
2022-12-03T12:37:27.336Z,3.70
2022-12-03T12:39:56.590Z,3.70
2022-12-03T12:42:34.934Z,3.80
2022-12-03T12:45:14.524Z,3.70
2022-12-03T12:48:03.305Z,3.70
2022-12-03T12:50:32.980Z,3.60
2022-12-03T12:53:11.197Z,3.70
2022-12-03T12:55:39.697Z,3.70
2022-12-03T12:58:15.006Z,3.70
2022-12-03T13:00:42.431Z,3.70
2022-12-03T13:03:12.127Z,3.70
2022-12-03T13:05:42.214Z,3.70
2022-12-03T13:08:20.646Z,3.70
2022-12-03T13:10:48.358Z,3.70
2022-12-03T13:13:19.632Z,3.70
2022-12-03T13:16:03.918Z,3.70
2022-12-03T13:18:38.452Z,3.70
2022-12-03T13:21:15.286Z,3.80
2022-12-03T13:23:41.934Z,3.80
2022-12-03T13:26:46.903Z,3.70
2022-12-03T13:29:19.356Z,3.80
2022-12-03T13:31:58.815Z,3.80
2022-12-03T13:34:30.872Z,3.80
2022-12-03T13:37:00.362Z,3.90
2022-12-03T13:39:35.087Z,3.90
2022-12-03T13:42:41.711Z,3.80
2022-12-03T13:45:14.786Z,3.80
2022-12-03T13:47:46.872Z,3.80
2022-12-03T13:50:34.313Z,3.90
2022-12-03T13:53:12.955Z,3.90
2022-12-03T13:55:44.732Z,3.80
2022-12-03T13:58:11.359Z,3.90
2022-12-03T14:00:38.875Z,3.90
2022-12-03T14:03:06.187Z,3.80
2022-12-03T14:05:32.923Z,3.80
2022-12-03T14:08:02.258Z,3.80
2022-12-03T14:10:29.807Z,3.90
2022-12-03T14:12:56.853Z,3.90
2022-12-03T14:15:24.842Z,3.80
2022-12-03T14:17:52.057Z,3.90
2022-12-03T14:20:19.146Z,3.80
2022-12-03T14:22:46.131Z,3.80
2022-12-03T14:25:12.721Z,3.80
2022-12-03T14:27:39.361Z,3.80
2022-12-03T14:30:07.561Z,3.80
2022-12-03T14:32:34.100Z,3.80
2022-12-03T14:35:03.969Z,3.90
2022-12-03T14:37:35.127Z,3.80
2022-12-03T14:40:03.661Z,3.80
2022-12-03T14:42:30.301Z,3.80
2022-12-03T14:44:56.892Z,3.80
2022-12-03T14:47:23.855Z,3.80
2022-12-03T14:49:51.928Z,3.70
2022-12-03T14:52:19.655Z,3.70
2022-12-03T14:54:46.286Z,3.70
2022-12-03T14:57:14.537Z,3.70
2022-12-03T14:59:42.915Z,3.70
2022-12-03T15:02:10.798Z,3.60
2022-12-03T15:04:38.661Z,3.60
2022-12-03T15:07:05.748Z,3.50
2022-12-03T15:09:32.420Z,3.50
2022-12-03T15:11:59.849Z,3.50
2022-12-03T15:14:26.431Z,3.50
2022-12-03T15:16:53.246Z,3.50
2022-12-03T15:19:19.893Z,3.40
2022-12-03T15:21:46.497Z,3.50
2022-12-03T15:24:13.214Z,3.50
2022-12-03T15:26:39.913Z,3.50
2022-12-03T15:29:06.541Z,3.50
2022-12-03T15:31:33.282Z,3.50
2022-12-03T15:33:59.947Z,3.50
2022-12-03T15:36:26.554Z,3.40
2022-12-03T15:38:53.225Z,3.50
2022-12-03T15:41:29.343Z,3.50
2022-12-03T15:44:01.882Z,3.50
2022-12-03T15:46:28.579Z,3.50
2022-12-03T15:48:55.762Z,3.50
2022-12-03T15:51:22.495Z,3.50
2022-12-03T15:53:49.254Z,3.50
2022-12-03T15:56:16.289Z,3.50
2022-12-03T15:58:43.081Z,3.50
2022-12-03T16:01:10.188Z,3.40
2022-12-03T16:03:36.947Z,3.40
2022-12-03T16:06:03.640Z,3.40
2022-12-03T16:08:30.295Z,3.40
2022-12-03T16:10:56.984Z,3.40
2022-12-03T16:13:23.600Z,3.40
2022-12-03T16:15:50.395Z,3.40
2022-12-03T16:18:17.228Z,3.40
2022-12-03T16:20:43.976Z,3.40
2022-12-03T16:23:10.573Z,3.30
2022-12-03T16:25:37.214Z,3.30
2022-12-03T16:28:03.937Z,3.30
2022-12-03T16:30:30.534Z,3.30
2022-12-03T16:32:57.079Z,3.20
2022-12-03T16:35:23.787Z,3.30
2022-12-03T16:37:50.383Z,3.30
2022-12-03T16:40:17.000Z,3.30
2022-12-03T16:42:43.573Z,3.40
2022-12-03T16:45:10.460Z,3.30
2022-12-03T16:47:37.127Z,3.40
2022-12-03T16:50:07.608Z,3.30
2022-12-03T16:52:35.418Z,3.40
2022-12-03T16:55:02.208Z,3.30
2022-12-03T16:57:33.327Z,3.40
2022-12-03T17:00:00.562Z,3.40
2022-12-03T17:02:28.354Z,3.40
2022-12-03T17:04:55.090Z,3.40
2022-12-03T17:07:21.750Z,3.50
2022-12-03T17:09:48.756Z,3.50
2022-12-03T17:12:15.317Z,3.40
2022-12-03T17:14:43.029Z,3.40
2022-12-03T17:17:09.764Z,3.40
2022-12-03T17:19:36.518Z,3.40
2022-12-03T17:22:03.098Z,3.50
2022-12-03T17:24:29.695Z,3.50
2022-12-03T17:26:56.244Z,3.50
2022-12-03T17:29:22.767Z,3.50
2022-12-03T17:31:49.447Z,3.40
2022-12-03T17:34:16.267Z,3.40
2022-12-03T17:36:42.918Z,3.40
2022-12-03T17:39:09.627Z,3.40
2022-12-03T17:41:36.203Z,3.50
2022-12-03T17:44:09.722Z,3.50
2022-12-03T17:46:36.916Z,3.50
2022-12-03T17:49:03.645Z,3.40
2022-12-03T17:51:30.492Z,3.40
2022-12-03T17:53:57.074Z,3.50
2022-12-03T17:56:23.679Z,3.50
2022-12-03T17:58:50.403Z,3.50
2022-12-03T18:01:16.985Z,3.50
2022-12-03T18:03:43.742Z,3.60
2022-12-03T18:06:10.317Z,3.50
2022-12-03T18:08:36.851Z,3.50
2022-12-03T18:11:03.384Z,3.50
2022-12-03T18:13:30.001Z,3.50
2022-12-03T18:15:56.699Z,3.60
2022-12-03T18:18:23.337Z,3.60
2022-12-03T18:20:50.312Z,3.60
2022-12-03T18:23:16.935Z,3.50
2022-12-03T18:25:43.596Z,3.60
2022-12-03T18:28:10.165Z,3.60
2022-12-03T18:30:36.827Z,3.50
2022-12-03T18:33:03.370Z,3.50
2022-12-03T18:35:30.047Z,3.40
2022-12-03T18:37:56.615Z,3.50
2022-12-03T18:40:24.505Z,3.40
2022-12-03T18:42:51.063Z,3.40
2022-12-03T18:45:18.258Z,3.40
2022-12-03T18:47:44.973Z,3.40
2022-12-03T18:50:12.651Z,3.40
2022-12-03T18:52:39.344Z,3.40
2022-12-03T18:55:06.506Z,3.50
2022-12-03T18:57:33.089Z,3.50
2022-12-03T18:59:59.800Z,3.40
2022-12-03T19:03:01.154Z,3.40
2022-12-03T19:05:13.057Z,3.40
2022-12-03T19:07:39.677Z,3.40
2022-12-03T19:10:07.164Z,3.40
2022-12-03T19:12:33.797Z,3.40
2022-12-03T19:15:00.482Z,3.40
2022-12-03T19:17:27.437Z,3.50
2022-12-03T19:19:54.812Z,3.40
2022-12-03T19:22:22.074Z,3.40
2022-12-03T19:24:48.706Z,3.30
2022-12-03T19:27:15.508Z,3.30
2022-12-03T19:29:42.425Z,3.30
2022-12-03T19:32:09.046Z,3.20
2022-12-03T19:34:35.742Z,3.20
2022-12-03T19:37:02.314Z,3.20
2022-12-03T19:39:28.830Z,3.20
2022-12-03T19:41:55.410Z,3.10
2022-12-03T19:44:21.982Z,3.10
2022-12-03T19:46:49.679Z,3.10
2022-12-03T19:49:18.329Z,3.10
2022-12-03T19:51:44.915Z,3.00
2022-12-03T19:54:12.154Z,3.00
2022-12-03T19:56:39.153Z,3.00
2022-12-03T19:59:06.475Z,3.10
2022-12-03T20:01:35.527Z,3.10
2022-12-03T20:04:03.365Z,3.10
2022-12-03T20:06:32.024Z,3.10
2022-12-03T20:09:01.123Z,3.00
2022-12-03T20:11:30.542Z,3.00
2022-12-03T20:13:59.943Z,2.90
2022-12-03T20:16:27.694Z,2.90
2022-12-03T20:19:02.600Z,2.80
2022-12-03T20:21:31.679Z,2.70
2022-12-03T20:23:58.845Z,2.70
2022-12-03T20:26:25.760Z,2.60
2022-12-03T20:28:56.409Z,2.60
2022-12-03T20:31:25.980Z,2.60
2022-12-03T20:33:55.786Z,2.50
2022-12-03T20:36:22.798Z,2.50
2022-12-03T20:38:54.422Z,2.50
2022-12-03T20:41:21.287Z,2.50
2022-12-03T20:43:48.580Z,2.50
2022-12-03T20:46:28.871Z,2.50
2022-12-03T20:48:56.104Z,2.50
2022-12-03T20:51:25.881Z,2.40
2022-12-03T20:53:52.676Z,2.40
2022-12-03T20:56:21.990Z,2.50
2022-12-03T20:58:50.493Z,2.50
2022-12-03T21:01:19.187Z,2.50
2022-12-03T21:03:47.176Z,2.50
2022-12-03T21:06:14.687Z,2.50
2022-12-03T21:08:42.966Z,2.40
2022-12-03T21:11:13.689Z,2.40
2022-12-03T21:13:44.028Z,2.40
2022-12-03T21:16:13.917Z,2.30
2022-12-03T21:18:42.002Z,2.30
2022-12-03T21:21:10.283Z,2.20
2022-12-03T21:23:37.043Z,2.30
2022-12-03T21:26:11.731Z,2.30
2022-12-03T21:28:40.393Z,2.30
2022-12-03T21:31:09.701Z,2.40
2022-12-03T21:33:36.564Z,2.30
2022-12-03T21:36:04.550Z,2.30
2022-12-03T21:38:31.705Z,2.30
2022-12-03T21:40:59.414Z,2.20
2022-12-03T21:43:26.864Z,2.20
2022-12-03T21:45:53.838Z,2.20
2022-12-03T21:48:21.077Z,2.30
2022-12-03T21:50:59.409Z,2.20
2022-12-03T21:53:26.003Z,2.10
2022-12-03T21:55:52.589Z,2.10
2022-12-03T21:58:19.338Z,2.00
2022-12-03T22:00:45.921Z,2.00
2022-12-03T22:03:12.569Z,2.00
2022-12-03T22:05:39.838Z,2.00
2022-12-03T22:08:07.478Z,2.00
2022-12-03T22:10:35.699Z,2.10
2022-12-03T22:13:02.278Z,2.10
2022-12-03T22:15:29.028Z,2.10
2022-12-03T22:17:55.785Z,2.00
2022-12-03T22:20:22.418Z,2.00
2022-12-03T22:22:49.036Z,1.90
2022-12-03T22:25:15.883Z,2.00
2022-12-03T22:27:42.617Z,2.00
2022-12-03T22:30:09.636Z,1.90
2022-12-03T22:32:36.416Z,1.80
2022-12-03T22:35:03.407Z,1.80
2022-12-03T22:37:32.738Z,1.80
2022-12-03T22:39:59.505Z,1.90
2022-12-03T22:42:26.147Z,1.90
2022-12-03T22:44:52.810Z,1.90
2022-12-03T22:47:19.403Z,1.90
2022-12-03T22:49:45.982Z,1.90
2022-12-03T22:52:12.706Z,2.00
2022-12-03T22:54:39.509Z,2.00
2022-12-03T22:57:06.242Z,2.00
2022-12-03T22:59:32.777Z,1.90
2022-12-03T23:01:59.361Z,1.90
2022-12-03T23:04:26.107Z,1.90
2022-12-03T23:06:52.641Z,1.90
2022-12-03T23:09:19.259Z,1.80
2022-12-03T23:11:46.446Z,1.90
2022-12-03T23:14:13.245Z,1.80
2022-12-03T23:16:40.279Z,1.80
2022-12-03T23:19:06.887Z,1.80
2022-12-03T23:21:34.805Z,1.80
2022-12-03T23:24:03.479Z,1.80
2022-12-03T23:26:30.329Z,1.80
2022-12-03T23:28:57.150Z,1.90
2022-12-03T23:31:25.200Z,1.90
2022-12-03T23:33:52.889Z,1.90
2022-12-03T23:36:20.128Z,1.90
2022-12-03T23:38:46.796Z,1.80
2022-12-03T23:41:16.428Z,1.90
2022-12-03T23:43:43.395Z,1.90
2022-12-03T23:46:12.699Z,1.90
2022-12-03T23:48:39.616Z,1.90
2022-12-03T23:51:11.782Z,1.90
2022-12-03T23:53:39.333Z,1.90
2022-12-03T23:56:07.323Z,1.90
2022-12-03T23:58:34.011Z,1.90
